createdAt,value
2023-03-27T00:01:44.939Z,4.93
2023-03-27T00:06:49.028Z,5.70
2023-03-27T00:11:52.849Z,5.78
2023-03-27T00:17:00.375Z,4.93
2023-03-27T00:22:03.934Z,5.30
2023-03-27T00:27:09.227Z,5.82
2023-03-27T00:32:14.116Z,5.38
2023-03-27T00:42:24.856Z,5.68
2023-03-27T00:47:33.596Z,6.35
2023-03-27T00:52:37.371Z,6.28
2023-03-27T00:57:41.441Z,6.38
2023-03-27T01:02:49.902Z,7.30
2023-03-27T01:08:00.400Z,6.68
2023-03-27T01:13:18.665Z,7.70
2023-03-27T01:18:38.132Z,7.28
2023-03-27T01:24:17.504Z,7.10
2023-03-27T01:29:26.332Z,7.03
2023-03-27T01:35:02.119Z,8.35
2023-03-27T01:46:01.554Z,14.00
2023-03-27T01:51:10.359Z,10.90
2023-03-27T01:56:26.302Z,11.20
2023-03-27T02:01:34.408Z,13.05
2023-03-27T02:06:42.670Z,15.80
2023-03-27T02:11:54.874Z,15.85
2023-03-27T02:17:03.678Z,7.97
2023-03-27T02:22:07.830Z,9.77
2023-03-27T02:27:23.558Z,9.35
2023-03-27T02:32:39.829Z,17.00
2023-03-27T02:37:53.223Z,12.57
2023-03-27T02:43:04.651Z,7.18
2023-03-27T02:48:14.131Z,13.10
2023-03-27T02:53:21.228Z,8.77
2023-03-27T02:58:32.356Z,9.98
2023-03-27T03:03:41.902Z,9.95
2023-03-27T03:08:46.818Z,9.93
2023-03-27T03:18:55.197Z,6.68
2023-03-27T03:23:59.106Z,6.22
2023-03-27T03:29:04.706Z,5.85
2023-03-27T03:34:08.105Z,10.90
2023-03-27T03:39:12.709Z,9.23
2023-03-27T03:49:21.034Z,4.60
2023-03-27T03:54:24.508Z,8.27
2023-03-27T03:59:30.220Z,6.15
2023-03-27T04:04:33.606Z,7.28
2023-03-27T04:09:37.043Z,5.55
2023-03-27T04:14:41.964Z,5.10
2023-03-27T04:19:46.446Z,5.55
2023-03-27T04:24:50.748Z,5.80
2023-03-27T04:29:55.551Z,6.00
2023-03-27T04:34:59.209Z,7.85
2023-03-27T04:40:05.199Z,10.00
2023-03-27T04:45:14.971Z,6.55
2023-03-27T04:50:19.480Z,8.35
2023-03-27T04:55:25.989Z,8.15
2023-03-27T05:00:30.813Z,8.15
2023-03-27T05:10:38.580Z,6.80
2023-03-27T05:15:43.739Z,8.40
2023-03-27T05:20:49.790Z,8.02
2023-03-27T05:25:59.988Z,6.68
2023-03-27T05:31:06.323Z,7.07
2023-03-27T05:36:10.829Z,6.63
2023-03-27T05:41:16.239Z,7.45
2023-03-27T05:46:21.820Z,6.45
2023-03-27T05:51:25.598Z,6.18
2023-03-27T06:02:11.159Z,7.07
2023-03-27T06:07:15.089Z,7.25
2023-03-27T06:12:18.976Z,8.47
2023-03-27T06:17:24.052Z,7.27
2023-03-27T06:22:27.677Z,7.72
2023-03-27T06:27:32.285Z,8.57
2023-03-27T06:32:37.298Z,10.80
2023-03-27T06:43:04.514Z,9.13
2023-03-27T06:48:18.820Z,8.25
2023-03-27T06:53:27.781Z,8.88
2023-03-27T06:58:32.154Z,8.50
2023-03-27T07:03:37.050Z,9.05
2023-03-27T07:13:45.233Z,9.23
2023-03-27T07:18:50.376Z,8.93
2023-03-27T07:23:54.573Z,9.63
2023-03-27T07:29:00.790Z,8.73
2023-03-27T07:34:05.874Z,9.68
2023-03-27T07:39:09.870Z,8.85
2023-03-27T07:44:13.456Z,8.57
2023-03-27T07:49:18.822Z,9.10
2023-03-27T07:54:22.283Z,10.30
2023-03-27T07:59:25.981Z,8.73
2023-03-27T08:04:30.847Z,9.38
2023-03-27T08:09:34.477Z,9.55
2023-03-27T08:14:38.025Z,8.40
2023-03-27T08:19:45.579Z,9.43
2023-03-27T08:24:49.413Z,9.23
2023-03-27T08:29:53.353Z,8.75
2023-03-27T08:34:58.179Z,9.82
2023-03-27T08:45:16.512Z,9.43
2023-03-27T08:50:33.136Z,8.13
2023-03-27T08:55:42.351Z,8.63
2023-03-27T09:00:50.057Z,9.63
2023-03-27T09:06:00.511Z,8.63
2023-03-27T09:11:10.549Z,8.02
2023-03-27T09:16:20.428Z,7.72
2023-03-27T09:21:36.309Z,6.63
2023-03-27T09:26:39.816Z,6.32
2023-03-27T09:31:48.450Z,5.72
2023-03-27T09:36:53.438Z,5.50
2023-03-27T09:42:00.658Z,5.47
2023-03-27T09:47:16.321Z,4.13
2023-03-27T09:52:40.489Z,3.80
2023-03-27T09:57:44.696Z,3.80
2023-03-27T10:02:48.238Z,4.22
2023-03-27T10:07:53.170Z,3.65
2023-03-27T10:12:58.917Z,3.67
2023-03-27T10:18:06.887Z,3.90
2023-03-27T10:23:25.241Z,3.97
2023-03-27T10:28:30.954Z,3.80
2023-03-27T10:33:36.776Z,3.20
2023-03-27T10:38:44.139Z,3.40
2023-03-27T10:43:49.677Z,2.90
2023-03-27T10:49:00.591Z,2.30
2023-03-27T10:54:14.822Z,2.50
2023-03-27T10:59:34.731Z,2.30
2023-03-27T11:04:50.570Z,2.50
2023-03-27T11:10:03.063Z,2.30
2023-03-27T11:15:14.817Z,2.47
2023-03-27T11:20:26.252Z,2.63
2023-03-27T11:25:41.128Z,2.47
2023-03-27T11:30:49.394Z,2.30
2023-03-27T11:35:59.454Z,2.45
2023-03-27T11:41:04.697Z,2.47
2023-03-27T11:46:25.208Z,2.00
2023-03-27T11:51:38.314Z,2.20
2023-03-27T11:56:54.588Z,2.40
2023-03-27T12:02:02.945Z,2.50
2023-03-27T12:07:18.758Z,3.75
2023-03-27T12:13:03.089Z,4.65
2023-03-27T12:18:16.092Z,5.15
2023-03-27T12:24:01.036Z,5.65
2023-03-27T12:29:23.023Z,5.57
2023-03-27T12:34:41.694Z,5.20
2023-03-27T12:39:53.669Z,5.78
2023-03-27T12:45:14.687Z,4.80
2023-03-27T12:50:27.514Z,4.55
2023-03-27T12:55:36.061Z,4.25
2023-03-27T13:00:40.972Z,4.35
2023-03-27T13:06:04.738Z,3.85
2023-03-27T13:11:22.732Z,3.47
2023-03-27T13:16:47.438Z,3.22
2023-03-27T13:22:06.270Z,3.60
2023-03-27T13:27:23.547Z,3.40
2023-03-27T13:32:38.087Z,3.97
2023-03-27T13:37:54.398Z,3.95
2023-03-27T13:43:10.250Z,4.68
2023-03-27T13:48:44.175Z,4.22
2023-03-27T13:54:20.931Z,4.20
2023-03-27T14:00:00.693Z,4.75
2023-03-27T14:05:25.434Z,4.53
2023-03-27T14:10:57.294Z,4.63
2023-03-27T14:16:23.749Z,4.05
2023-03-27T14:21:38.268Z,4.40
2023-03-27T14:26:45.502Z,5.60
2023-03-27T14:31:49.428Z,4.75
2023-03-27T14:36:56.194Z,5.23
2023-03-27T14:42:02.244Z,4.32
2023-03-27T14:47:12.098Z,4.10
2023-03-27T14:52:25.297Z,3.92
2023-03-27T14:57:29.737Z,5.30
2023-03-27T15:02:35.722Z,5.13
2023-03-27T15:07:42.964Z,6.22
2023-03-27T15:12:48.089Z,5.95
2023-03-27T15:17:54.978Z,4.78
2023-03-27T15:23:06.680Z,4.72
2023-03-27T15:28:17.871Z,5.13
2023-03-27T15:33:26.708Z,4.80
2023-03-27T15:38:34.786Z,5.05
2023-03-27T15:43:38.276Z,5.15
2023-03-27T15:48:45.167Z,5.00
2023-03-27T15:53:53.768Z,5.32
2023-03-27T15:59:00.436Z,5.35
2023-03-27T16:04:09.109Z,7.15
2023-03-27T16:09:25.319Z,5.93
2023-03-27T16:14:31.827Z,5.75
2023-03-27T16:19:43.232Z,5.78
2023-03-27T16:24:48.222Z,6.55
2023-03-27T16:29:52.298Z,7.13
2023-03-27T16:34:55.812Z,6.13
2023-03-27T16:40:00.727Z,7.05
2023-03-27T16:45:05.286Z,7.40
2023-03-27T16:50:11.612Z,6.43
2023-03-27T16:55:17.373Z,6.30
2023-03-27T17:00:21.432Z,6.47
2023-03-27T17:05:25.995Z,6.83
2023-03-27T17:10:31.369Z,6.75
2023-03-27T17:15:38.405Z,6.60
2023-03-27T17:20:42.016Z,6.80
2023-03-27T17:25:47.875Z,6.22
2023-03-27T17:31:01.414Z,6.45
2023-03-27T17:36:11.942Z,6.65
2023-03-27T17:41:17.710Z,5.95
2023-03-27T17:46:21.733Z,6.22
2023-03-27T17:51:25.462Z,6.13
2023-03-27T17:56:30.341Z,6.07
2023-03-27T18:06:38.176Z,6.43
2023-03-27T18:11:43.098Z,6.82
2023-03-27T18:21:49.900Z,6.57
2023-03-27T18:26:55.504Z,7.70
2023-03-27T18:31:59.050Z,6.72
2023-03-27T18:37:02.626Z,6.78
2023-03-27T18:42:08.868Z,6.53
2023-03-27T18:47:12.376Z,6.63
2023-03-27T18:52:16.168Z,7.13
2023-03-27T18:57:21.360Z,7.30
2023-03-27T19:02:25.046Z,7.18
2023-03-27T19:07:28.657Z,6.72
2023-03-27T19:12:35.049Z,6.22
2023-03-27T19:17:40.412Z,5.88
2023-03-27T19:22:45.914Z,6.05
2023-03-27T19:27:50.790Z,5.90
2023-03-27T19:37:57.648Z,5.30
2023-03-27T19:43:02.616Z,5.60
2023-03-27T19:48:06.585Z,5.38
2023-03-27T19:53:10.112Z,5.40
2023-03-27T19:58:14.972Z,5.25
2023-03-27T20:08:23.885Z,6.40
2023-03-27T20:13:28.767Z,6.10
2023-03-27T20:23:38.728Z,5.55
2023-03-27T20:28:43.618Z,5.10
2023-03-27T20:38:52.940Z,5.05
2023-03-27T20:43:58.953Z,5.13
2023-03-27T20:49:03.708Z,4.28
2023-03-27T20:54:10.238Z,3.20
2023-03-27T20:59:15.205Z,3.83
2023-03-27T21:09:22.265Z,2.72
2023-03-27T21:14:27.386Z,3.23
2023-03-27T21:19:30.868Z,3.47
2023-03-27T21:24:34.352Z,2.60
2023-03-27T21:29:39.352Z,3.00
2023-03-27T21:34:43.022Z,3.65
2023-03-27T21:39:46.470Z,3.33
2023-03-27T21:44:54.861Z,3.20
2023-03-27T21:50:00.172Z,3.88
2023-03-27T21:55:03.866Z,3.38
2023-03-27T22:00:10.474Z,3.72
2023-03-27T22:05:14.026Z,3.58
2023-03-27T22:10:17.791Z,3.60
2023-03-27T22:15:22.826Z,3.78
2023-03-27T22:20:26.323Z,3.75
2023-03-27T22:25:29.808Z,3.78
2023-03-27T22:30:34.715Z,3.50
2023-03-27T22:40:41.474Z,5.03
2023-03-27T22:45:46.312Z,5.82
2023-03-27T22:50:56.194Z,5.47
2023-03-27T22:56:00.790Z,6.30
2023-03-27T23:06:17.308Z,6.28
2023-03-27T23:11:21.350Z,7.00
2023-03-27T23:16:26.279Z,6.97
2023-03-27T23:21:29.799Z,6.68
2023-03-27T23:26:33.288Z,7.20
2023-03-27T23:31:38.220Z,7.28
2023-03-27T23:36:41.776Z,7.38
2023-03-27T23:41:45.169Z,7.75
2023-03-27T23:46:49.991Z,7.45
2023-03-27T23:56:57.026Z,6.50
